Time;durP1;ratioP1;P1;durP2;ratioP2;P2;SDS_P1;SDS_P2;PMS_P1;PMS_P2;Temp;Humidity;BMP_temperature;BMP_pressure;BME280_temperature;BME280_humidity;BME280_pressure;Samples;Min_cycle;Max_cycle;Signal;HPM_P1;HPM_P2
2021/09/04 00:00:52;;;;;;;19.37;17.43;;;18.30;99.90;;;;;;5011109;28;20282;-70
2021/09/04 00:03:18;;;;;;;20.00;18.10;;;18.30;99.90;;;;;;5012227;28;20190;-70
2021/09/04 00:05:43;;;;;;;19.73;17.70;;;18.30;99.90;;;;;;5012310;28;20175;-69
2021/09/04 00:08:09;;;;;;;20.20;18.30;;;18.30;99.90;;;;;;5013190;28;20650;-69
2021/09/04 00:10:35;;;;;;;20.67;18.60;;;18.40;99.90;;;;;;5013400;28;20627;-81
2021/09/04 00:13:01;;;;;;;18.90;17.20;;;18.40;99.90;;;;;;5013439;28;20179;-69
2021/09/04 00:15:27;;;;;;;19.10;17.20;;;18.40;99.90;;;;;;5013825;28;20424;-70
2021/09/04 00:17:56;;;;;;;18.50;15.23;;;18.40;99.90;;;;;;5012585;28;20215;-70
2021/09/04 00:20:22;;;;;;;18.27;16.33;;;18.40;99.90;;;;;;5013506;28;20476;-70
2021/09/04 00:22:47;;;;;;;17.90;16.27;;;18.30;99.90;;;;;;5011750;28;20421;-70
2021/09/04 00:25:14;;;;;;;17.83;16.13;;;18.30;99.90;;;;;;5013575;28;20426;-70
2021/09/04 00:27:41;;;;;;;17.40;15.70;;;18.30;99.90;;;;;;5013038;28;20201;-70
2021/09/04 00:30:07;;;;;;;17.87;16.07;;;18.30;99.90;;;;;;5013541;28;20414;-70
2021/09/04 00:32:33;;;;;;;19.10;16.57;;;18.30;99.90;;;;;;5012237;28;20418;-70
2021/09/04 00:34:58;;;;;;;18.03;16.13;;;18.30;99.90;;;;;;5012837;28;20454;-69
2021/09/04 00:37:24;;;;;;;16.60;15.10;;;18.20;99.90;;;;;;5014234;28;20210;-70
2021/09/04 00:39:50;;;;;;;16.13;14.57;;;18.20;99.90;;;;;;5013193;28;20241;-69
2021/09/04 00:42:19;;;;;;;16.07;14.40;;;18.20;99.90;;;;;;5012923;28;20186;-70
2021/09/04 00:44:45;;;;;;;17.40;15.57;;;18.20;99.90;;;;;;5012216;28;20179;-70
2021/09/04 00:47:11;;;;;;;18.23;16.40;;;18.20;99.90;;;;;;5012935;28;20979;-70
2021/09/04 00:49:37;;;;;;;18.07;16.37;;;18.10;99.90;;;;;;5012371;28;20761;-73
2021/09/04 00:52:05;;;;;;;20.00;17.57;;;18.10;99.90;;;;;;5010016;28;20430;-70
2021/09/04 00:54:31;;;;;;;17.70;15.90;;;18.00;99.90;;;;;;5012483;28;20422;-70
2021/09/04 00:56:58;;;;;;;17.43;15.60;;;17.90;99.90;;;;;;5012232;28;20453;-70
2021/09/04 00:59:25;;;;;;;18.17;16.47;;;17.90;99.90;;;;;;5012898;28;20410;-70
2021/09/04 01:01:51;;;;;;;18.13;16.27;;;17.90;99.90;;;;;;5012346;28;20429;-70
2021/09/04 01:04:16;;;;;;;18.87;17.10;;;18.00;99.90;;;;;;5012249;28;20398;-70
2021/09/04 01:06:42;;;;;;;18.43;16.63;;;18.00;99.90;;;;;;5012253;28;20182;-70
2021/09/04 01:09:08;;;;;;;18.10;16.30;;;17.90;99.90;;;;;;5013030;28;20198;-69
2021/09/04 01:11:34;;;;;;;21.23;17.10;;;17.90;99.90;;;;;;5012760;28;20175;-70
2021/09/04 01:14:00;;;;;;;19.37;17.40;;;17.90;99.90;;;;;;5012378;28;20634;-70
2021/09/04 01:16:37;;;;;;;19.10;17.13;;;17.90;99.90;;;;;;5013424;28;20171;-70
2021/09/04 01:19:03;;;;;;;19.30;17.33;;;17.90;99.90;;;;;;5012842;28;20453;-70
2021/09/04 01:21:29;;;;;;;19.00;17.20;;;18.00;99.90;;;;;;5012664;28;20418;-70
2021/09/04 01:23:55;;;;;;;20.03;17.47;;;18.00;99.90;;;;;;5012028;28;20410;-70
2021/09/04 01:26:22;;;;;;;19.70;17.83;;;18.00;99.90;;;;;;5013131;28;20207;-70
2021/09/04 01:28:48;;;;;;;21.67;18.87;;;17.90;99.90;;;;;;5012318;28;20841;-70
2021/09/04 01:31:14;;;;;;;18.97;16.90;;;17.90;99.90;;;;;;5012633;28;20493;-70
2021/09/04 01:33:44;;;;;;;21.97;19.77;;;17.80;99.90;;;;;;5012197;28;20184;-70
2021/09/04 01:36:11;;;;;;;21.53;19.27;;;17.80;99.90;;;;;;5012358;28;20227;-70
2021/09/04 01:38:37;;;;;;;20.47;18.47;;;17.70;99.90;;;;;;5011427;28;20474;-70
2021/09/04 01:41:02;;;;;;;21.50;18.37;;;17.70;99.90;;;;;;5011973;28;20436;-70
2021/09/04 01:43:28;;;;;;;21.20;18.90;;;17.70;99.90;;;;;;5012266;28;20426;-70
2021/09/04 01:45:54;;;;;;;22.23;19.83;;;17.70;99.90;;;;;;5011808;28;20274;-70
2021/09/04 01:48:20;;;;;;;22.10;19.80;;;17.70;99.90;;;;;;5012629;28;20203;-70
2021/09/04 01:50:46;;;;;;;18.50;16.70;;;17.70;99.90;;;;;;5012159;28;20461;-70
2021/09/04 01:53:12;;;;;;;19.83;17.80;;;17.70;99.90;;;;;;4995126;28;20643;-70
2021/09/04 01:55:38;;;;;;;23.40;16.97;;;17.70;99.90;;;;;;4992944;28;20180;-70
2021/09/04 01:58:04;;;;;;;24.07;17.30;;;17.70;99.90;;;;;;4991908;28;20211;-70
2021/09/04 02:00:29;;;;;;;19.97;17.90;;;17.70;99.90;;;;;;4993196;28;20624;-70
2021/09/04 02:02:55;;;;;;;21.27;18.97;;;17.70;99.90;;;;;;5006919;28;20472;-70
2021/09/04 02:05:21;;;;;;;21.00;18.80;;;17.60;99.90;;;;;;5012482;28;20207;-70
2021/09/04 02:07:46;;;;;;;21.30;19.00;;;17.60;99.90;;;;;;5011886;28;20175;-70
2021/09/04 02:10:12;;;;;;;21.00;18.90;;;17.60;99.90;;;;;;5012562;28;20176;-70
2021/09/04 02:12:38;;;;;;;22.80;20.37;;;17.50;99.90;;;;;;5012245;28;20175;-70
2021/09/04 02:15:07;;;;;;;22.83;20.30;;;17.50;99.90;;;;;;5012209;28;20171;-69
2021/09/04 02:17:33;;;;;;;21.03;18.83;;;17.50;99.90;;;;;;5015993;28;20215;-70
2021/09/04 02:19:58;;;;;;;21.30;19.10;;;17.50;99.90;;;;;;5015398;28;20504;-70
2021/09/04 02:22:24;;;;;;;23.43;20.80;;;17.40;99.90;;;;;;5014526;28;20186;-70
2021/09/04 02:24:50;;;;;;;24.37;21.60;;;17.30;99.90;;;;;;5015404;28;20175;-70
2021/09/04 02:27:16;;;;;;;26.83;21.10;;;17.20;99.90;;;;;;5015627;28;20201;-70
2021/09/04 02:29:42;;;;;;;26.33;21.87;;;17.20;99.90;;;;;;5015497;28;20179;-82
2021/09/04 02:32:08;;;;;;;26.70;23.73;;;17.20;99.90;;;;;;5015458;28;20539;-70
2021/09/04 02:34:33;;;;;;;27.67;21.97;;;17.20;99.90;;;;;;5015567;28;20175;-70
2021/09/04 02:36:59;;;;;;;28.73;21.87;;;17.10;99.90;;;;;;5014613;28;20445;-70
2021/09/04 02:39:25;;;;;;;27.03;23.63;;;17.00;99.90;;;;;;5015787;28;20202;-70
2021/09/04 02:41:50;;;;;;;26.13;22.07;;;16.90;99.90;;;;;;5014780;28;20167;-70
2021/09/04 02:44:16;;;;;;;27.93;22.07;;;16.80;99.90;;;;;;5015596;28;20614;-70
2021/09/04 02:46:42;;;;;;;27.37;22.40;;;16.80;99.90;;;;;;5014073;28;20262;-70
2021/09/04 02:49:07;;;;;;;27.20;22.50;;;16.80;99.90;;;;;;5013167;28;20537;-70
2021/09/04 02:51:35;;;;;;;28.40;22.37;;;16.90;99.90;;;;;;5014899;28;20676;-70
2021/09/04 02:54:01;;;;;;;28.33;22.90;;;17.00;99.90;;;;;;5014335;28;20582;-70
2021/09/04 02:56:26;;;;;;;30.03;23.57;;;17.00;99.90;;;;;;5015559;28;20406;-70
2021/09/04 02:58:52;;;;;;;25.90;23.00;;;17.10;99.90;;;;;;5013503;28;20214;-70
2021/09/04 03:01:18;;;;;;;31.43;22.17;;;17.20;99.90;;;;;;5013885;28;20186;-71
2021/09/04 03:03:44;;;;;;;32.13;23.77;;;17.30;99.90;;;;;;5015039;28;20183;-83
2021/09/04 03:06:09;;;;;;;26.43;23.20;;;17.30;99.90;;;;;;5015054;28;20262;-69
2021/09/04 03:08:35;;;;;;;27.20;22.33;;;17.40;99.90;;;;;;5014998;28;20549;-69
2021/09/04 03:11:03;;;;;;;26.53;21.20;;;17.40;99.90;;;;;;5014298;28;20175;-69
2021/09/04 03:13:29;;;;;;;32.50;23.67;;;17.40;99.90;;;;;;5014889;28;20179;-69
2021/09/04 03:15:55;;;;;;;32.50;24.17;;;17.40;99.90;;;;;;4994882;28;20408;-69
2021/09/04 03:18:20;;;;;;;34.53;24.53;;;17.50;99.90;;;;;;4996221;28;20214;-69
2021/09/04 03:20:46;;;;;;;36.53;27.63;;;17.50;99.90;;;;;;5014251;28;20670;-69
2021/09/04 03:23:12;;;;;;;35.83;25.70;;;17.50;99.90;;;;;;5014912;28;20247;-69
2021/09/04 03:25:37;;;;;;;33.97;25.67;;;17.60;99.90;;;;;;5014551;28;20175;-68
2021/09/04 03:28:03;;;;;;;36.33;27.87;;;17.60;99.90;;;;;;5013440;28;20174;-69
2021/09/04 03:30:29;;;;;;;36.50;23.60;;;17.50;99.90;;;;;;5015169;28;20182;-68
2021/09/04 03:32:54;;;;;;;35.50;26.17;;;17.50;99.90;;;;;;5013877;28;20171;-69
2021/09/04 03:35:20;;;;;;;30.60;24.63;;;17.50;99.90;;;;;;5014583;28;20214;-68
2021/09/04 03:37:47;;;;;;;34.80;27.67;;;17.40;99.90;;;;;;5013811;28;20211;-77
2021/09/04 03:40:13;;;;;;;46.97;33.87;;;17.30;99.90;;;;;;5014800;28;20186;-68
2021/09/04 03:42:38;;;;;;;39.90;27.13;;;17.40;99.90;;;;;;5014417;28;20436;-68
2021/09/04 03:45:05;;;;;;;40.63;28.27;;;17.30;99.90;;;;;;5013568;28;20414;-68
2021/09/04 03:47:30;;;;;;;37.50;27.80;;;17.30;99.90;;;;;;5014491;28;20197;-68
2021/09/04 03:49:56;;;;;;;36.53;28.07;;;17.30;99.90;;;;;;5006219;28;20411;-68
2021/09/04 03:52:22;;;;;;;37.37;27.70;;;17.30;99.90;;;;;;4994767;28;20182;-68
2021/09/04 03:54:47;;;;;;;37.73;28.57;;;17.30;99.90;;;;;;4994429;28;20213;-70
2021/09/04 03:57:13;;;;;;;43.93;28.63;;;17.20;99.90;;;;;;4994615;28;20246;-68
2021/09/04 03:59:39;;;;;;;45.27;30.07;;;17.00;99.90;;;;;;4994665;28;20514;-68
2021/09/04 04:02:04;;;;;;;41.43;29.27;;;16.80;99.90;;;;;;5002216;28;20183;-68
2021/09/04 04:04:30;;;;;;;43.80;28.63;;;16.80;99.90;;;;;;5014151;28;20171;-68
2021/09/04 04:06:55;;;;;;;35.87;27.13;;;16.70;99.90;;;;;;5013098;28;20245;-68
2021/09/04 04:09:21;;;;;;;44.67;30.60;;;16.80;99.90;;;;;;5014032;28;20190;-68
2021/09/04 04:11:47;;;;;;;44.33;31.33;;;16.80;99.90;;;;;;5014010;28;20182;-68
2021/09/04 04:14:13;;;;;;;43.63;29.97;;;16.80;99.90;;;;;;5013704;28;20253;-68
2021/09/04 04:16:38;;;;;;;47.47;29.33;;;16.90;99.90;;;;;;5012635;28;20398;-68
2021/09/04 04:19:04;;;;;;;40.47;29.10;;;17.00;99.90;;;;;;5013306;28;20278;-68
2021/09/04 04:21:30;;;;;;;42.20;29.27;;;17.00;99.90;;;;;;5013868;28;20171;-68
2021/09/04 04:23:56;;;;;;;43.77;29.13;;;17.00;99.90;;;;;;5013186;28;20645;-68
2021/09/04 04:26:21;;;;;;;45.70;32.90;;;16.80;99.90;;;;;;5013433;28;20262;-68
2021/09/04 04:28:47;;;;;;;42.33;29.87;;;16.80;99.90;;;;;;5013706;28;20171;-68
2021/09/04 04:31:13;;;;;;;45.10;31.63;;;16.80;99.90;;;;;;4995449;28;20202;-68
2021/09/04 04:33:38;;;;;;;43.90;30.80;;;16.90;99.90;;;;;;5012566;28;20198;-68
2021/09/04 04:36:04;;;;;;;45.30;30.20;;;17.00;99.90;;;;;;5012825;28;20219;-68
2021/09/04 04:38:30;;;;;;;46.33;30.90;;;17.00;99.90;;;;;;5013208;28;20739;-68
2021/09/04 04:40:55;;;;;;;45.90;30.57;;;17.10;99.90;;;;;;5012964;28;20178;-68
2021/09/04 04:43:21;;;;;;;41.50;29.63;;;17.20;99.90;;;;;;5013488;28;20174;-68
2021/09/04 04:45:47;;;;;;;49.60;30.57;;;17.20;99.90;;;;;;5013456;28;20253;-68
2021/09/04 04:48:12;;;;;;;40.57;29.23;;;17.30;99.90;;;;;;5012779;28;20173;-68
2021/09/04 04:50:38;;;;;;;42.13;30.30;;;17.30;99.90;;;;;;5013179;28;20248;-68
2021/09/04 04:53:04;;;;;;;43.63;29.83;;;17.40;99.90;;;;;;5012788;28;20175;-68
2021/09/04 04:55:29;;;;;;;39.80;28.67;;;17.40;99.90;;;;;;5013292;28;20257;-68
2021/09/04 04:57:55;;;;;;;39.07;28.23;;;17.50;99.90;;;;;;5012660;28;20207;-68
2021/09/04 05:00:21;;;;;;;39.87;29.50;;;17.50;99.90;;;;;;5012985;28;20178;-68
2021/09/04 05:02:46;;;;;;;39.20;28.73;;;17.50;99.90;;;;;;5013043;28;20206;-68
2021/09/04 05:05:12;;;;;;;42.10;27.60;;;17.50;99.90;;;;;;5012393;28;20209;-68
2021/09/04 05:07:38;;;;;;;40.30;28.70;;;17.60;99.90;;;;;;5013212;28;20229;-68
2021/09/04 05:10:04;;;;;;;37.30;28.27;;;17.60;99.90;;;;;;5012449;28;20174;-68
2021/09/04 05:12:30;;;;;;;36.60;26.40;;;17.60;99.90;;;;;;5013203;28;20207;-68
2021/09/04 05:14:56;;;;;;;38.10;26.50;;;17.60;99.90;;;;;;5011612;28;20457;-69
2021/09/04 05:17:21;;;;;;;36.93;27.23;;;17.60;99.90;;;;;;5011899;28;20556;-68
2021/09/04 05:19:47;;;;;;;39.17;27.63;;;17.70;99.90;;;;;;5012940;28;20201;-68
2021/09/04 05:22:13;;;;;;;37.53;26.37;;;17.60;99.90;;;;;;5012389;28;20175;-68
2021/09/04 05:24:38;;;;;;;38.03;27.10;;;17.60;99.90;;;;;;5012775;28;20174;-69
2021/09/04 05:27:04;;;;;;;33.40;24.17;;;17.60;99.90;;;;;;5012202;28;20195;-69
2021/09/04 05:29:30;;;;;;;35.70;26.90;;;17.60;99.90;;;;;;5012910;28;20198;-69
2021/09/04 05:31:56;;;;;;;38.33;28.03;;;17.40;99.90;;;;;;5011529;28;20266;-68
2021/09/04 05:34:22;;;;;;;34.70;27.23;;;17.30;99.90;;;;;;5028167;28;20398;-68
2021/09/04 05:36:48;;;;;;;35.10;27.30;;;17.40;99.90;;;;;;5010988;28;20464;-68
2021/09/04 05:39:14;;;;;;;32.97;24.47;;;17.40;99.90;;;;;;5012013;28;20218;-68
2021/09/04 05:41:39;;;;;;;34.13;25.10;;;17.30;99.90;;;;;;5012385;28;20548;-68
2021/09/04 05:44:05;;;;;;;33.00;24.83;;;17.30;99.90;;;;;;5012240;28;20578;-68
2021/09/04 05:46:31;;;;;;;31.70;24.57;;;17.30;99.90;;;;;;5012516;28;20178;-68
2021/09/04 05:48:57;;;;;;;31.50;23.70;;;17.30;99.90;;;;;;5011571;28;20183;-68
2021/09/04 05:51:22;;;;;;;34.23;25.47;;;17.30;99.90;;;;;;5015101;28;20175;-68
2021/09/04 05:53:48;;;;;;;31.50;25.50;;;17.30;99.90;;;;;;5016466;28;20174;-68
2021/09/04 05:56:14;;;;;;;28.90;22.50;;;17.30;99.90;;;;;;5015855;28;20186;-68
2021/09/04 05:58:40;;;;;;;28.03;22.60;;;17.30;99.90;;;;;;5016465;28;20195;-69
2021/09/04 06:01:06;;;;;;;30.60;23.90;;;17.30;99.90;;;;;;5014298;28;20211;-68
2021/09/04 06:03:32;;;;;;;27.20;22.03;;;17.30;99.90;;;;;;5015146;28;20461;-68
2021/09/04 06:05:58;;;;;;;26.40;20.83;;;17.40;99.90;;;;;;5015408;28;20419;-69
2021/09/04 06:08:24;;;;;;;27.33;21.40;;;17.40;99.90;;;;;;5015197;28;20850;-68
2021/09/04 06:10:51;;;;;;;27.77;22.23;;;17.50;99.90;;;;;;5016294;28;20480;-68
2021/09/04 06:13:17;;;;;;;25.93;21.07;;;17.50;99.90;;;;;;5013940;28;20561;-68
2021/09/04 06:15:44;;;;;;;24.57;19.53;;;17.50;99.90;;;;;;5015333;28;20910;-68
2021/09/04 06:18:11;;;;;;;26.50;21.43;;;17.50;99.90;;;;;;5014636;28;20446;-68
2021/09/04 06:20:36;;;;;;;23.03;20.47;;;17.60;99.90;;;;;;5031376;28;20505;-68
2021/09/04 06:23:02;;;;;;;25.97;21.50;;;17.60;99.90;;;;;;5014734;28;20512;-68
2021/09/04 06:25:28;;;;;;;25.30;20.60;;;17.60;99.90;;;;;;5015678;28;20320;-68
2021/09/04 06:27:54;;;;;;;24.07;19.63;;;17.70;99.90;;;;;;5015034;28;20191;-68
2021/09/04 06:30:20;;;;;;;21.77;18.00;;;17.70;99.90;;;;;;5014765;28;20421;-68
2021/09/04 06:32:46;;;;;;;21.00;18.20;;;17.70;99.90;;;;;;5014243;28;20183;-68
2021/09/04 06:35:11;;;;;;;21.80;18.83;;;17.70;99.90;;;;;;5014339;28;20461;-68
2021/09/04 06:37:38;;;;;;;24.33;20.10;;;17.70;99.90;;;;;;5015063;28;20499;-68
2021/09/04 06:40:05;;;;;;;21.67;17.73;;;17.80;99.90;;;;;;5013397;28;20179;-68
2021/09/04 06:42:31;;;;;;;19.77;17.23;;;17.80;99.90;;;;;;5015191;28;20903;-68
2021/09/04 06:44:56;;;;;;;19.73;17.63;;;17.80;99.90;;;;;;5014657;28;20449;-76
2021/09/04 06:47:22;;;;;;;19.90;17.80;;;17.90;99.90;;;;;;5015360;28;20545;-68
2021/09/04 06:49:48;;;;;;;19.77;16.97;;;17.80;99.90;;;;;;5015401;28;20175;-71
2021/09/04 06:52:14;;;;;;;18.77;16.67;;;17.80;99.90;;;;;;5015098;28;20185;-71
2021/09/04 06:54:39;;;;;;;18.90;15.63;;;17.80;99.90;;;;;;5014677;28;20198;-72
2021/09/04 06:57:05;;;;;;;16.70;14.80;;;17.70;99.90;;;;;;5014417;28;20501;-71
2021/09/04 06:59:31;;;;;;;19.77;17.03;;;17.50;99.90;;;;;;5015291;28;20179;-71
2021/09/04 07:01:57;;;;;;;22.70;17.80;;;17.40;99.90;;;;;;5014862;28;20187;-71
2021/09/04 07:04:23;;;;;;;20.80;17.00;;;17.20;99.90;;;;;;5030509;28;20414;-72
2021/09/04 07:06:49;;;;;;;22.07;18.73;;;17.20;99.90;;;;;;5015420;28;20501;-71
2021/09/04 07:09:15;;;;;;;21.77;18.53;;;17.10;99.90;;;;;;5013375;28;20686;-71
2021/09/04 07:11:40;;;;;;;22.33;16.50;;;17.00;99.90;;;;;;5014793;28;20532;-71
2021/09/04 07:14:06;;;;;;;18.60;16.50;;;16.90;99.90;;;;;;5014055;28;20190;-72
2021/09/04 07:16:32;;;;;;;21.13;17.00;;;17.00;99.90;;;;;;5014434;28;20190;-68
2021/09/04 07:18:58;;;;;;;19.43;17.03;;;17.30;99.90;;;;;;5014252;28;20237;-69
2021/09/04 07:21:24;;;;;;;19.60;15.97;;;17.70;99.90;;;;;;5029052;28;20548;-72
2021/09/04 07:23:50;;;;;;;19.27;16.37;;;18.00;99.90;;;;;;5020294;28;20508;-72
2021/09/04 07:26:16;;;;;;;18.33;16.07;;;18.10;99.90;;;;;;5018997;28;20989;-72
2021/09/04 07:28:42;;;;;;;19.60;16.33;;;18.30;99.90;;;;;;5014714;28;20191;-72
2021/09/04 07:31:07;;;;;;;18.27;16.07;;;18.50;99.90;;;;;;4996585;28;20252;-72
2021/09/04 07:33:33;;;;;;;19.13;16.23;;;18.60;99.90;;;;;;5013310;28;20171;-72
2021/09/04 07:35:59;;;;;;;19.00;16.43;;;18.50;99.90;;;;;;5012734;28;20317;-89
2021/09/04 07:38:25;;;;;;;18.53;15.33;;;18.60;99.90;;;;;;5014482;28;20301;-72
2021/09/04 07:40:51;;;;;;;17.70;15.67;;;18.70;99.90;;;;;;5014589;28;20418;-72
2021/09/04 07:43:17;;;;;;;18.87;16.33;;;18.80;99.90;;;;;;5013596;28;20635;-71
2021/09/04 07:45:43;;;;;;;18.93;15.53;;;18.70;99.90;;;;;;5014142;28;20507;-72
2021/09/04 07:48:09;;;;;;;18.37;16.17;;;18.80;99.90;;;;;;5013725;28;20183;-72
2021/09/04 07:50:35;;;;;;;20.70;16.40;;;18.90;99.90;;;;;;4996718;28;20187;-71
2021/09/04 07:53:01;;;;;;;16.30;14.17;;;19.00;99.90;;;;;;5013324;28;20514;-77
2021/09/04 07:55:27;;;;;;;17.57;15.07;;;19.00;99.90;;;;;;5014148;28;20424;-71
2021/09/04 07:57:53;;;;;;;21.27;15.13;;;19.00;99.90;;;;;;5013309;28;20210;-72
2021/09/04 08:00:19;;;;;;;17.00;14.80;;;19.10;99.90;;;;;;5013321;28;20650;-72
2021/09/04 08:02:45;;;;;;;16.07;14.30;;;19.20;99.90;;;;;;5011531;28;20426;-71
2021/09/04 08:05:11;;;;;;;19.30;15.00;;;19.20;99.90;;;;;;5011741;28;20631;-72
2021/09/04 08:07:37;;;;;;;20.73;15.80;;;19.30;99.90;;;;;;5013095;28;20786;-72
2021/09/04 08:10:04;;;;;;;22.50;16.33;;;19.30;99.90;;;;;;5013122;28;20497;-73
2021/09/04 08:12:30;;;;;;;17.23;14.80;;;19.40;99.90;;;;;;5013456;28;20468;-71
2021/09/04 08:14:56;;;;;;;17.93;15.90;;;19.40;99.90;;;;;;5013089;28;20429;-73
2021/09/04 08:17:21;;;;;;;17.53;15.57;;;19.40;99.90;;;;;;5012249;28;20289;-72
2021/09/04 08:19:47;;;;;;;18.37;15.43;;;19.40;99.90;;;;;;5013210;28;20190;-73
2021/09/04 08:22:13;;;;;;;16.70;14.93;;;19.50;99.90;;;;;;4993339;28;20221;-72
2021/09/04 08:24:38;;;;;;;16.00;13.83;;;19.50;99.90;;;;;;4993819;28;20572;-72
2021/09/04 08:27:04;;;;;;;19.43;15.90;;;19.60;99.90;;;;;;4993526;28;20179;-72
2021/09/04 08:29:30;;;;;;;19.43;16.20;;;19.50;99.90;;;;;;4994010;28;20205;-71
2021/09/04 08:31:56;;;;;;;17.33;15.27;;;19.50;99.90;;;;;;5009180;28;20164;-72
2021/09/04 08:34:21;;;;;;;22.00;18.20;;;19.50;99.90;;;;;;5012677;28;20392;-71
2021/09/04 08:36:47;;;;;;;15.87;14.27;;;19.50;99.90;;;;;;5013500;28;20642;-72
2021/09/04 08:39:13;;;;;;;13.70;12.30;;;19.50;99.90;;;;;;5012823;28;20218;-72
2021/09/04 08:41:39;;;;;;;16.30;14.60;;;19.50;99.90;;;;;;5013055;28;20186;-75
2021/09/04 08:44:06;;;;;;;16.03;13.57;;;19.40;99.90;;;;;;5012567;28;20199;-73
2021/09/04 08:46:36;;;;;;;17.67;14.03;;;19.30;99.90;;;;;;5012884;28;20405;-71
2021/09/04 08:49:04;;;;;;;16.63;14.23;;;19.20;99.90;;;;;;5012972;28;20440;-73
2021/09/04 08:51:30;;;;;;;16.07;14.13;;;19.20;99.90;;;;;;5012946;28;20434;-72
2021/09/04 08:53:56;;;;;;;15.17;13.50;;;19.30;99.90;;;;;;5012515;28;20417;-72
2021/09/04 08:56:22;;;;;;;14.50;13.00;;;19.40;99.90;;;;;;5011150;28;20497;-72
2021/09/04 08:58:48;;;;;;;16.80;13.97;;;19.40;99.90;;;;;;5012690;28;20450;-72
2021/09/04 09:01:20;;;;;;;15.63;13.43;;;19.40;99.90;;;;;;5026563;28;20433;-76
2021/09/04 09:03:45;;;;;;;15.10;13.50;;;19.40;99.90;;;;;;5007049;28;20179;-72
2021/09/04 09:06:12;;;;;;;15.40;13.60;;;19.50;99.90;;;;;;5008222;28;20433;-73
2021/09/04 09:08:43;;;;;;;15.00;13.40;;;19.50;99.90;;;;;;5011743;28;20187;-72
2021/09/04 09:11:10;;;;;;;17.03;14.23;;;19.50;99.90;;;;;;5009276;28;20497;-72
2021/09/04 09:13:50;;;;;;;15.70;14.03;;;19.40;99.90;;;;;;5012418;28;21005;-72
2021/09/04 09:16:17;;;;;;;15.30;12.50;;;19.40;99.90;;;;;;5010987;28;20500;-72
2021/09/04 09:18:55;;;;;;;15.93;14.33;;;19.50;99.90;;;;;;5011374;28;20461;-72
2021/09/04 09:21:21;;;;;;;16.60;13.63;;;19.50;99.90;;;;;;5012366;28;20421;-72
2021/09/04 09:24:15;;;;;;;19.10;14.60;;;19.40;99.90;;;;;;5011412;28;20414;-72
2021/09/04 09:26:47;;;;;;;15.47;13.27;;;19.40;99.90;;;;;;5012165;28;20175;-72
2021/09/04 09:29:18;;;;;;;14.50;12.97;;;19.50;99.90;;;;;;5011992;28;20918;-72
2021/09/04 09:31:44;;;;;;;15.07;13.27;;;19.50;99.90;;;;;;5012978;28;20437;-73
2021/09/04 09:34:11;;;;;;;15.37;12.63;;;19.50;99.90;;;;;;5012375;28;20867;-72
2021/09/04 09:36:48;;;;;;;16.10;13.97;;;19.50;99.90;;;;;;5011426;28;20462;-72
2021/09/04 09:39:13;;;;;;;14.43;13.03;;;19.30;99.90;;;;;;5012192;28;20818;-72
2021/09/04 09:41:50;;;;;;;16.13;13.20;;;19.40;99.90;;;;;;5012391;28;20406;-72
2021/09/04 09:44:19;;;;;;;14.90;13.30;;;19.30;99.90;;;;;;5012261;28;20167;-72
2021/09/04 09:46:49;;;;;;;15.10;13.13;;;19.20;99.90;;;;;;5011694;28;20410;-71
2021/09/04 09:49:14;;;;;;;15.83;13.60;;;19.20;99.90;;;;;;5012044;28;20418;-72
2021/09/04 09:51:41;;;;;;;16.87;12.40;;;19.30;99.90;;;;;;5012415;28;20912;-72
2021/09/04 09:54:08;;;;;;;15.50;13.47;;;19.30;99.90;;;;;;5011823;28;20187;-83
2021/09/04 09:56:34;;;;;;;14.67;12.50;;;19.30;99.90;;;;;;5011357;28;20775;-72
2021/09/04 09:59:00;;;;;;;16.63;13.97;;;19.20;99.90;;;;;;5012236;28;20532;-72
2021/09/04 10:01:26;;;;;;;14.60;12.07;;;19.20;99.90;;;;;;5011967;28;20179;-72
2021/09/04 10:03:56;;;;;;;15.80;13.67;;;19.10;99.90;;;;;;5012353;28;20179;-72
2021/09/04 10:06:22;;;;;;;17.43;14.07;;;19.20;99.90;;;;;;5010492;28;20258;-72
2021/09/04 10:08:47;;;;;;;17.23;13.57;;;19.20;99.90;;;;;;5012257;28;20480;-72
2021/09/04 10:11:13;;;;;;;15.73;13.37;;;19.20;99.90;;;;;;5011941;28;20809;-74
2021/09/04 10:13:39;;;;;;;14.53;13.03;;;19.20;99.90;;;;;;5012509;28;20171;-72
2021/09/04 10:16:07;;;;;;;15.00;12.90;;;19.20;99.90;;;;;;5012438;28;20175;-72
2021/09/04 10:18:33;;;;;;;15.27;13.37;;;19.20;99.90;;;;;;5017247;28;20198;-72
2021/09/04 10:21:07;;;;;;;13.90;12.23;;;19.10;99.90;;;;;;5032235;28;20445;-72
2021/09/04 10:23:33;;;;;;;15.47;13.80;;;19.20;99.90;;;;;;5023922;28;20782;-72
2021/09/04 10:26:23;;;;;;;13.17;11.77;;;19.40;99.90;;;;;;5012024;28;20430;-71
2021/09/04 10:28:55;;;;;;;11.63;10.43;;;19.40;99.90;;;;;;5011988;28;20237;-72
2021/09/04 10:31:39;;;;;;;14.00;12.17;;;19.50;99.90;;;;;;5011717;28;20429;-72
2021/09/04 10:34:16;;;;;;;13.87;12.33;;;19.60;99.90;;;;;;5011376;28;20418;-77
2021/09/04 10:37:07;;;;;;;13.73;12.33;;;19.70;99.90;;;;;;5009632;28;20471;-72
2021/09/04 10:39:59;;;;;;;14.20;12.70;;;19.70;99.90;;;;;;4986784;28;20530;-72
2021/09/04 10:42:33;;;;;;;12.20;11.00;;;19.70;99.90;;;;;;5014292;28;20422;-72
2021/09/04 10:45:07;;;;;;;13.00;11.57;;;19.80;99.90;;;;;;5014990;28;20452;-71
2021/09/04 10:47:47;;;;;;;14.63;13.23;;;20.00;99.90;;;;;;5012962;28;20445;-72
2021/09/04 10:50:22;;;;;;;15.17;12.93;;;20.10;99.90;;;;;;5011792;28;20410;-78
2021/09/04 10:52:56;;;;;;;16.30;14.27;;;20.10;99.90;;;;;;5014704;28;20450;-72
2021/09/04 10:55:28;;;;;;;14.00;12.63;;;20.20;99.90;;;;;;5014303;28;20944;-71
2021/09/04 10:58:18;;;;;;;15.00;13.17;;;20.10;99.90;;;;;;5012838;28;20456;-72
2021/09/04 11:00:48;;;;;;;14.17;12.60;;;20.10;99.90;;;;;;5009460;28;20426;-70
2021/09/04 11:03:16;;;;;;;16.03;14.07;;;20.00;99.90;;;;;;5009020;28;20430;-77
2021/09/04 11:06:05;;;;;;;16.73;14.20;;;20.00;99.90;;;;;;5014786;28;20760;-72
2021/09/04 11:08:30;;;;;;;13.90;12.40;;;20.00;99.90;;;;;;5012909;28;20429;-72
2021/09/04 11:11:16;;;;;;;16.10;14.00;;;20.10;99.90;;;;;;5013528;28;20414;-73
2021/09/04 11:13:43;;;;;;;15.87;13.87;;;20.10;99.90;;;;;;5026433;28;20538;-71
2021/09/04 11:16:27;;;;;;;16.07;13.90;;;20.10;99.90;;;;;;5013291;28;20940;-75
2021/09/04 11:18:55;;;;;;;17.57;14.10;;;20.00;99.90;;;;;;5014060;28;20457;-71
2021/09/04 11:21:21;;;;;;;19.23;15.77;;;20.00;99.90;;;;;;5012072;28;20780;-70
2021/09/04 11:23:49;;;;;;;17.70;14.60;;;19.80;99.90;;;;;;5013594;28;21035;-70
2021/09/04 11:26:15;;;;;;;16.30;14.60;;;19.70;99.90;;;;;;5012377;28;20914;-83
2021/09/04 11:28:40;;;;;;;18.97;15.20;;;19.70;99.90;;;;;;5012086;28;20426;-71
2021/09/04 11:31:06;;;;;;;18.17;15.40;;;19.50;99.90;;;;;;5013232;28;20171;-70
2021/09/04 11:33:32;;;;;;;177.30;128.30;;;19.30;99.90;;;;;;5012153;28;20221;-69
2021/09/04 11:35:57;;;;;;;147.83;111.87;;;19.20;99.90;;;;;;5011247;28;20810;-70
2021/09/04 11:38:24;;;;;;;25.00;20.70;;;19.20;99.90;;;;;;5011435;28;20199;-71
2021/09/04 11:40:52;;;;;;;19.67;15.20;;;19.20;99.90;;;;;;5013284;28;20228;-73
2021/09/04 11:43:24;;;;;;;18.03;15.50;;;19.20;99.90;;;;;;5011960;28;20818;-70
2021/09/04 11:46:00;;;;;;;19.10;15.87;;;19.20;99.90;;;;;;5013199;28;20437;-72
2021/09/04 11:48:26;;;;;;;20.30;15.30;;;19.10;99.90;;;;;;5011075;28;20429;-70
2021/09/04 11:50:52;;;;;;;19.07;15.47;;;19.00;99.90;;;;;;5011993;28;20418;-71
2021/09/04 11:53:18;;;;;;;21.93;16.77;;;19.00;99.90;;;;;;5012496;28;20571;-72
2021/09/04 11:55:43;;;;;;;23.10;16.70;;;19.10;99.90;;;;;;5012018;28;20183;-71
2021/09/04 11:58:14;;;;;;;19.67;17.53;;;19.00;99.90;;;;;;5013380;28;20252;-72
2021/09/04 12:00:41;;;;;;;24.53;18.47;;;19.00;99.90;;;;;;5013743;28;20195;-72
2021/09/04 12:03:12;;;;;;;21.77;17.80;;;19.00;99.90;;;;;;5013691;28;20407;-72
2021/09/04 12:05:43;;;;;;;23.90;18.23;;;18.90;99.90;;;;;;5012491;28;20417;-72
2021/09/04 12:08:27;;;;;;;21.60;17.67;;;19.00;99.90;;;;;;5013471;28;20947;-72
2021/09/04 12:11:02;;;;;;;24.60;18.27;;;19.00;99.90;;;;;;5012547;28;20760;-72
2021/09/04 12:13:30;;;;;;;23.10;16.87;;;18.90;99.90;;;;;;5013033;28;20888;-72
2021/09/04 12:16:01;;;;;;;23.43;16.87;;;18.80;99.90;;;;;;5012729;28;20878;-72
2021/09/04 12:18:35;;;;;;;20.60;15.97;;;18.80;99.90;;;;;;5012562;28;20468;-72
2021/09/04 12:21:24;;;;;;;20.60;16.50;;;18.80;99.90;;;;;;5013924;28;20418;-71
2021/09/04 12:23:52;;;;;;;41.73;34.33;;;18.80;99.90;;;;;;5013415;28;20483;-71
2021/09/04 12:26:18;;;;;;;112.83;77.97;;;18.70;99.90;;;;;;5012793;28;20402;-72